LFST 250130Z AUTO 16003KT 140V200 9999 FEW041 17/17 Q1010 NOSIG

ElémentsDécodage
LFST Station météo située sur l'aérodrome de STRASBOURG Entzheim
250130Z émis le 25 du mois à 01h30 UTC
AUTO Bulletin édité par un automate
16003KT vent du 160°, 03 noeuds
140V200 vent de direction variable entre 140° et 200°
9999 visibilité horizontale supérieure à 10 Km
FEW041 nuages rares (1/8 à 2/8) à 4100 pieds
17/17 température 17°C, point de rosée 17°C
 soit une humidité relative de 100%
Q1010 la pression au niveau de la mer (QNH) est de 1010 hPa
NOSIG Pas de changement significatif prévu au cours des deux heures suivant l'heure de l'observation